Flight Track Log - Related Links

Times and Time Zones

All times are in EDT time to prevent confusion due to time zone crossing. See the JAL1873 flight status page for this flight to view local times or setup timezone preferences in your user account.


Time Position Orientation Groundspeed Altitude Reporting Facility
EDT Latitude Longitude Course Direction KTS MPH feet Rate Location/Type
Sat 03:50:00 AM 35.4358 139.4577 246° West  Level Estimated
Sat 03:51:00 AM 35.3967 139.3506 246° West  Level Estimated
Sat 03:52:00 AM 35.3576 139.2436 246° West  Level Estimated
Sat 03:53:00 AM 35.3184 139.1367 246° West  Level Estimated
Sat 03:54:00 AM 35.2795 139.0311 246° West  Level Estimated
Sat 03:55:00 AM 35.2406 138.9256 246° West  Level Estimated
Sat 03:56:00 AM 35.2015 138.8202 246° West  Level Estimated
Sat 03:57:00 AM 35.1624 138.7149 246° West  Level Estimated
Sat 03:58:00 AM 35.1232 138.6097 246° West  Level Estimated
Sat 03:59:00 AM 35.0839 138.5046 245° Southwest  Level Estimated
Sat 04:00:00 AM 35.0444 138.3996 245° Southwest  Level Estimated
Sat 04:01:00 AM 35.0049 138.2948 245° Southwest  Level Estimated
Sat 04:02:00 AM 34.9654 138.1900 245° Southwest  Level Estimated
Sat 04:03:00 AM 34.9257 138.0853 245° Southwest  Level Estimated
Sat 04:04:00 AM 34.8859 137.9807 245° Southwest  Level Estimated
Sat 04:05:00 AM 34.8460 137.8762 245° Southwest  Level Estimated
Sat 04:06:00 AM 34.8061 137.7718 245° Southwest  Level Estimated
Sat 04:07:00 AM 34.7660 137.6675 245° Southwest  Level Estimated
Sat 04:08:00 AM 34.7259 137.5634 245° Southwest  Level Estimated
Sat 04:09:00 AM 34.6857 137.4593 245° Southwest  Level Estimated
Sat 04:10:00 AM 34.6454 137.3553 245° Southwest  Level Estimated
Sat 04:11:00 AM 34.6031 137.2465 245° Southwest  Level Estimated
Sat 04:12:00 AM 34.5607 137.1379 245° Southwest  Level Estimated
Sat 04:13:00 AM 34.5182 137.0293 245° Southwest  Level Estimated
Sat 04:14:00 AM 34.4756 136.9209 245° Southwest  Level Estimated
Sat 04:15:00 AM 34.4330 136.8126 244° Southwest  Level Estimated
Sat 04:16:00 AM 34.3902 136.7044 244° Southwest  Level Estimated
Sat 04:17:00 AM 34.3473 136.5963 244° Southwest  Level Estimated
Sat 04:18:00 AM 34.3044 136.4883 244° Southwest  Level Estimated
Sat 04:19:00 AM 34.2613 136.3804 244° Southwest  Level Estimated
Sat 04:20:00 AM 34.2182 136.2726 244° Southwest  Level Estimated
Sat 04:21:00 AM 34.1749 136.1650 244° Southwest  Level Estimated
Sat 04:22:00 AM 34.1316 136.0574 244° Southwest  Level Estimated
Sat 04:23:00 AM 34.0881 135.9500 244° Southwest  Level Estimated
Sat 04:24:00 AM 34.0446 135.8427 244° Southwest  Level Estimated
Sat 04:25:00 AM 34.0010 135.7354 244° Southwest  Level Estimated
Sat 04:26:00 AM 33.9572 135.6283 244° Southwest  Level Estimated
Sat 04:27:00 AM 33.9134 135.5213 244° Southwest  Level Estimated
Sat 04:28:00 AM 33.8695 135.4144 244° Southwest  Level Estimated
Sat 04:29:00 AM 33.8256 135.3077 244° Southwest  Level Estimated
Sat 04:30:00 AM 33.7815 135.2010 244° Southwest  Level Estimated
Sat 04:31:00 AM 33.7373 135.0944 244° Southwest  Level Estimated
Sat 04:32:00 AM 33.6930 134.9880 243° Southwest  Level Estimated
Sat 04:33:00 AM 33.6487 134.8816 243° Southwest  Level Estimated
Sat 04:34:00 AM 33.6042 134.7754 243° Southwest  Level Estimated
Sat 04:35:00 AM 33.5597 134.6693 243° Southwest  Level Estimated
Sat 04:36:00 AM 33.5150 134.5633 243° Southwest  Level Estimated
Sat 04:37:00 AM 33.4703 134.4574 243° Southwest  Level Estimated
Sat 04:38:00 AM 33.4255 134.3516 243° Southwest  Level Estimated
Sat 04:39:00 AM 33.3806 134.2459 243° Southwest  Level Estimated
Sat 04:40:00 AM 33.3356 134.1403 243° Southwest  Level Estimated
Sat 04:41:00 AM 33.2905 134.0349 243° Southwest  Level Estimated
Sat 04:42:00 AM 33.2454 133.9295 243° Southwest  Level Estimated
Sat 04:43:00 AM 33.2001 133.8243 243° Southwest  Level Estimated
Sat 04:44:00 AM 33.1548 133.7191 243° Southwest  Level Estimated
Sat 04:45:00 AM 33.1093 133.6141 243° Southwest  Level Estimated
Sat 04:46:00 AM 33.0638 133.5092 243° Southwest  Level Estimated
Sat 04:47:00 AM 33.0182 133.4044 243° Southwest  Level Estimated
Sat 04:48:00 AM 32.9725 133.2997 243° Southwest  Level Estimated
Sat 04:49:00 AM 32.9267 133.1951 242° Southwest  Level Estimated
Sat 04:50:00 AM 32.8809 133.0906 242° Southwest  Level Estimated
Sat 04:51:00 AM 32.8349 132.9862 242° Southwest  Level Estimated
Sat 04:52:00 AM 32.7888 132.8820 242° Southwest  Level Estimated
Sat 04:53:00 AM 32.7427 132.7778 242° Southwest  Level Estimated
Sat 04:54:00 AM 32.6965 132.6738 242° Southwest  Level Estimated
Sat 04:55:00 AM 32.6502 132.5698 242° Southwest  Level Estimated
Sat 04:56:00 AM 32.6038 132.4660 242° Southwest  Level Estimated
Sat 04:57:00 AM 32.5573 132.3622 242° Southwest  Level Estimated
Sat 04:58:00 AM 32.5108 132.2586 242° Southwest  Level Estimated
Sat 04:59:00 AM 32.4641 132.1551 242° Southwest  Level Estimated
Sat 05:00:00 AM 32.4174 132.0517 242° Southwest  Level Estimated
Sat 05:01:00 AM 32.3706 131.9484 242° Southwest  Level Estimated
Sat 05:02:00 AM 32.3237 131.8452 242° Southwest  Level Estimated
Sat 05:03:00 AM 32.2767 131.7421 242° Southwest  Level Estimated
Sat 05:04:00 AM 32.2296 131.6391 242° Southwest  Level Estimated
Sat 05:05:00 AM 32.1825 131.5363 242° Southwest  Level Estimated
Sat 05:06:00 AM 32.1353 131.4335 242° Southwest  Level Estimated
Sat 05:07:00 AM 32.0880 131.3309 241° Southwest  Level Estimated
Sat 05:08:00 AM 32.0406 131.2283 241° Southwest  Level Estimated
Sat 05:09:00 AM 31.9931 131.1259 241° Southwest  Level Estimated
Sat 05:10:00 AM 31.9455 131.0235 241° Southwest  Level Estimated
Sat 05:11:00 AM 31.8979 130.9213 241° Southwest  Level Estimated
Sat 05:12:00 AM 31.8501 130.8192 241° Southwest  Level Estimated
Sat 05:13:00 AM 31.8034 130.7194 241° Southwest  Level Estimated
Sat 05:14:00 AM 31.8034 130.7194 210° Southwest  Level Estimated
Sat 05:15:00 AM 31.8034 130.7194 210° Southwest  Level Estimated
Sat 05:16:00 AM 31.8034 130.7194 210° Southwest  Level Estimated
Sat 05:17:00 AM 31.8034 130.7194 210° Southwest  Level Estimated
Sat 05:18:00 AM 31.8034 130.7194 210° Southwest  Level Estimated
Sat 05:19:00 AM 31.8034 130.7194 210° Southwest  Level Estimated
Sat 05:20:00 AM 31.8034 130.7194 210° Southwest  Level Estimated
Sat 05:21:00 AM 31.8034 130.7194 210° Southwest  Level Estimated
Sat 05:22:00 AM 31.8034 130.7194 210° Southwest  Level Estimated
Sat 05:23:00 AM 31.8034 130.7194 210° Southwest  Level Estimated
Sat 05:24:00 AM 31.8034 130.7194 210° Southwest  Level Estimated
Sat 05:25:00 AM 31.8034 130.7194 210° Southwest  Level Estimated
Sat 05:26:00 AM 31.8034 130.7194 210° Southwest  Level Estimated
Sat 05:27:00 AM 31.8034 130.7194 210° Southwest  Level Estimated

Login

Don't have an account? Register now (free) for customized features, flight alerts, and more!